createdAt,value
2017-04-17T00:00:50.868Z,1004.59
2017-04-17T00:01:50.885Z,1004.59
2017-04-17T00:02:50.904Z,1004.61
2017-04-17T00:03:50.919Z,1004.61
2017-04-17T00:04:50.938Z,1004.59
2017-04-17T00:05:50.953Z,1004.58
2017-04-17T00:06:50.968Z,1004.57
2017-04-17T00:07:50.990Z,1004.54
2017-04-17T00:08:51.004Z,1004.55
2017-04-17T00:09:51.020Z,1004.51
2017-04-17T00:10:51.036Z,1004.55
2017-04-17T00:11:51.056Z,1004.56
2017-04-17T00:12:51.069Z,1004.56
2017-04-17T00:13:51.087Z,1004.56
2017-04-17T00:14:51.103Z,1004.54
2017-04-17T00:15:51.121Z,1004.51
2017-04-17T00:16:51.136Z,1004.55
2017-04-17T00:17:51.152Z,1004.53
2017-04-17T00:18:51.170Z,1004.49
2017-04-17T00:19:51.186Z,1004.53
2017-04-17T00:20:51.204Z,1004.5
2017-04-17T00:21:51.218Z,1004.48
2017-04-17T00:22:51.235Z,1004.49
2017-04-17T00:23:51.254Z,1004.48
2017-04-17T00:24:51.270Z,1004.44
2017-04-17T00:25:51.285Z,1004.48
2017-04-17T00:26:51.302Z,1004.46
2017-04-17T00:27:51.319Z,1004.45
2017-04-17T00:28:51.337Z,1004.46
2017-04-17T00:29:51.352Z,1004.41
2017-04-17T00:30:51.369Z,1004.42
2017-04-17T00:31:51.385Z,1004.41
2017-04-17T00:32:51.404Z,1004.42
2017-04-17T00:33:51.420Z,1004.44
2017-04-17T00:34:51.437Z,1004.4
2017-04-17T00:35:51.452Z,1004.39
2017-04-17T00:36:51.469Z,1004.4
2017-04-17T00:37:51.487Z,1004.39
2017-04-17T00:38:51.503Z,1004.4
2017-04-17T00:39:51.521Z,1004.36
2017-04-17T00:40:51.534Z,1004.39
2017-04-17T00:41:51.551Z,1004.38
2017-04-17T00:42:51.569Z,1004.38
2017-04-17T00:43:51.585Z,1004.34
2017-04-17T00:44:51.603Z,1004.35
2017-04-17T00:45:51.618Z,1004.36
2017-04-17T00:46:51.636Z,1004.33
2017-04-17T00:47:51.656Z,1004.34
2017-04-17T00:48:51.668Z,1004.32
2017-04-17T00:49:51.687Z,1004.32
2017-04-17T00:50:51.702Z,1004.33
2017-04-17T00:51:51.718Z,1004.31
2017-04-17T00:52:51.735Z,1004.3
2017-04-17T00:53:51.753Z,1004.34
2017-04-17T00:54:51.768Z,1004.32
2017-04-17T00:55:51.784Z,1004.34
2017-04-17T00:56:51.802Z,1004.28
2017-04-17T00:57:51.818Z,1004.35
2017-04-17T00:58:51.834Z,1004.33
2017-04-17T00:59:51.853Z,1004.3
2017-04-17T01:00:51.868Z,1004.3
2017-04-17T01:01:51.883Z,1004.28
2017-04-17T01:02:51.900Z,1004.29
2017-04-17T01:03:51.916Z,1004.27
2017-04-17T01:04:51.933Z,1004.26
2017-04-17T01:05:51.949Z,1004.28
2017-04-17T01:06:51.964Z,1004.29
2017-04-17T01:07:51.983Z,1004.28
2017-04-17T01:08:51.998Z,1004.29
2017-04-17T01:09:52.013Z,1004.28
2017-04-17T01:10:52.031Z,1004.3
2017-04-17T01:11:52.047Z,1004.31
2017-04-17T01:12:52.064Z,1004.32
2017-04-17T01:13:52.080Z,1004.31
2017-04-17T01:14:52.097Z,1004.31
2017-04-17T01:15:52.114Z,1004.31
2017-04-17T01:16:52.130Z,1004.3
2017-04-17T01:17:52.146Z,1004.31
2017-04-17T01:18:52.162Z,1004.29
2017-04-17T01:19:52.179Z,1004.24
2017-04-17T01:20:52.195Z,1004.25
2017-04-17T01:21:52.211Z,1004.23
2017-04-17T01:22:52.228Z,1004.19
2017-04-17T01:23:52.246Z,1004.15
2017-04-17T01:24:52.261Z,1004.13
2017-04-17T01:25:52.277Z,1004.18
2017-04-17T01:26:52.293Z,1004.17
2017-04-17T01:27:52.315Z,1004.17
2017-04-17T01:28:52.325Z,1004.17
2017-04-17T01:29:52.342Z,1004.19
2017-04-17T01:30:52.359Z,1004.26
2017-04-17T01:31:52.374Z,1004.21
2017-04-17T01:32:52.391Z,1004.22
2017-04-17T01:33:52.408Z,1004.23
2017-04-17T01:34:52.424Z,1004.22
2017-04-17T01:35:52.440Z,1004.17
2017-04-17T01:36:52.455Z,1004.19
2017-04-17T01:37:52.473Z,1004.14
2017-04-17T01:38:52.488Z,1004.15
2017-04-17T01:39:52.505Z,1004.17
2017-04-17T01:40:52.521Z,1004.16
2017-04-17T01:41:52.537Z,1004.19
2017-04-17T01:42:52.555Z,1004.17
2017-04-17T01:43:52.570Z,1004.17
2017-04-17T01:44:52.589Z,1004.17
2017-04-17T01:45:52.602Z,1004.12
2017-04-17T01:46:52.618Z,1004.11
2017-04-17T01:47:52.634Z,1004.13
2017-04-17T01:48:52.653Z,1004.12
2017-04-17T01:49:52.667Z,1004.1
2017-04-17T01:50:52.684Z,1004.06
2017-04-17T01:51:52.701Z,1004.06
2017-04-17T01:52:52.716Z,1004.01
2017-04-17T01:53:52.731Z,1004.03
2017-04-17T01:54:52.749Z,1004.06
2017-04-17T01:55:52.765Z,1004.04
2017-04-17T01:56:52.780Z,1004.04
2017-04-17T01:57:52.796Z,1004.02
2017-04-17T01:58:52.815Z,1003.98
2017-04-17T01:59:52.829Z,1004.02
2017-04-17T02:00:52.845Z,1003.98
2017-04-17T02:01:52.863Z,1004
2017-04-17T02:02:52.885Z,1003.99
2017-04-17T02:03:52.893Z,1003.96
2017-04-17T02:04:52.911Z,1003.95
2017-04-17T02:05:52.927Z,1003.93
2017-04-17T02:06:52.943Z,1003.95
2017-04-17T02:07:52.957Z,1003.94
2017-04-17T02:08:52.974Z,1003.94
2017-04-17T02:09:52.991Z,1003.94
2017-04-17T02:10:53.008Z,1003.91
2017-04-17T02:11:53.023Z,1003.92
2017-04-17T02:12:53.040Z,1003.94
2017-04-17T02:13:53.055Z,1003.85
2017-04-17T02:14:53.071Z,1003.87
2017-04-17T02:15:53.087Z,1003.83
2017-04-17T02:16:53.104Z,1003.86
2017-04-17T02:17:53.120Z,1003.82
2017-04-17T02:18:53.135Z,1003.83
2017-04-17T02:19:53.153Z,1003.8
2017-04-17T02:20:53.168Z,1003.84
2017-04-17T02:21:53.185Z,1003.85
2017-04-17T02:22:53.203Z,1003.84
2017-04-17T02:23:53.218Z,1003.85
2017-04-17T02:24:53.236Z,1003.81
2017-04-17T02:25:53.251Z,1003.81
2017-04-17T02:26:53.265Z,1003.8
2017-04-17T02:27:53.281Z,1003.78
2017-04-17T02:28:53.298Z,1003.81
2017-04-17T02:29:53.315Z,1003.8
2017-04-17T02:30:53.331Z,1003.8
2017-04-17T02:31:53.348Z,1003.81
2017-04-17T02:32:53.361Z,1003.8
2017-04-17T02:33:53.378Z,1003.78
2017-04-17T02:34:53.398Z,1003.79
2017-04-17T02:35:53.411Z,1003.77
2017-04-17T02:36:53.426Z,1003.79
2017-04-17T02:37:53.443Z,1003.79
2017-04-17T02:38:53.458Z,1003.76
2017-04-17T02:39:53.475Z,1003.76
2017-04-17T02:40:53.490Z,1003.76
2017-04-17T02:41:53.507Z,1003.72
2017-04-17T02:42:53.523Z,1003.74
2017-04-17T02:43:53.538Z,1003.76
2017-04-17T02:44:53.555Z,1003.76
2017-04-17T02:45:53.571Z,1003.7
2017-04-17T02:46:53.591Z,1003.74
2017-04-17T02:47:53.602Z,1003.72
2017-04-17T02:48:53.617Z,1003.74
2017-04-17T02:49:53.635Z,1003.72
2017-04-17T02:50:53.653Z,1003.7
2017-04-17T02:51:53.666Z,1003.67
2017-04-17T02:52:53.682Z,1003.66
2017-04-17T02:53:53.698Z,1003.7
2017-04-17T02:54:53.713Z,1003.69
2017-04-17T02:55:53.732Z,1003.68
2017-04-17T02:56:53.746Z,1003.71
2017-04-17T02:57:53.764Z,1003.63
2017-04-17T02:58:53.778Z,1003.67
2017-04-17T02:59:53.795Z,1003.62
2017-04-17T03:00:53.810Z,1003.68
2017-04-17T03:01:53.827Z,1003.62
2017-04-17T03:02:53.841Z,1003.66
2017-04-17T03:03:53.857Z,1003.63
2017-04-17T03:04:53.873Z,1003.64
2017-04-17T03:05:53.889Z,1003.63
2017-04-17T03:06:53.906Z,1003.64
2017-04-17T03:07:53.925Z,1003.63
2017-04-17T03:08:53.937Z,1003.66
2017-04-17T03:09:53.952Z,1003.66
2017-04-17T03:10:53.969Z,1003.65
2017-04-17T03:11:53.985Z,1003.62
2017-04-17T03:12:54.002Z,1003.64
2017-04-17T03:13:54.015Z,1003.64
2017-04-17T03:14:54.032Z,1003.6
2017-04-17T03:15:54.050Z,1003.61
2017-04-17T03:16:54.064Z,1003.6
2017-04-17T03:17:54.080Z,1003.58
2017-04-17T03:18:54.097Z,1003.56
2017-04-17T03:19:54.112Z,1003.56
2017-04-17T03:20:54.126Z,1003.51
2017-04-17T03:21:54.144Z,1003.53
2017-04-17T03:22:54.159Z,1003.5
2017-04-17T03:23:54.174Z,1003.5
2017-04-17T03:24:54.191Z,1003.51
2017-04-17T03:25:54.207Z,1003.49
2017-04-17T03:26:54.228Z,1003.47
2017-04-17T03:27:54.240Z,1003.5
2017-04-17T03:28:54.256Z,1003.5
2017-04-17T03:29:54.271Z,1003.53
2017-04-17T03:30:54.286Z,1003.55
2017-04-17T03:31:54.302Z,1003.54
2017-04-17T03:32:54.319Z,1003.56
2017-04-17T03:33:54.333Z,1003.53
2017-04-17T03:34:54.349Z,1003.55
2017-04-17T03:35:54.365Z,1003.52
2017-04-17T03:36:54.380Z,1003.53
2017-04-17T03:37:54.396Z,1003.51
2017-04-17T03:38:54.414Z,1003.54
2017-04-17T03:39:54.428Z,1003.48
2017-04-17T03:40:54.444Z,1003.53
2017-04-17T03:41:54.462Z,1003.52
2017-04-17T03:42:54.475Z,1003.52
2017-04-17T03:43:54.492Z,1003.47
2017-04-17T03:44:54.508Z,1003.48
2017-04-17T03:45:54.523Z,1003.51
2017-04-17T03:46:54.539Z,1003.45
2017-04-17T03:47:54.555Z,1003.48
2017-04-17T03:48:54.571Z,1003.46
2017-04-17T03:49:54.584Z,1003.44
2017-04-17T03:50:54.602Z,1003.43
2017-04-17T03:51:54.618Z,1003.45
2017-04-17T03:52:54.633Z,1003.44
2017-04-17T03:53:54.649Z,1003.44
2017-04-17T03:54:54.664Z,1003.44
2017-04-17T03:55:54.681Z,1003.46
2017-04-17T03:56:54.696Z,1003.43
2017-04-17T03:57:54.712Z,1003.39
2017-04-17T03:58:54.729Z,1003.39
2017-04-17T03:59:54.745Z,1003.4
2017-04-17T04:00:54.759Z,1003.46
2017-04-17T04:01:54.776Z,1003.43
2017-04-17T04:02:54.791Z,1003.45
2017-04-17T04:03:54.808Z,1003.41
2017-04-17T04:04:54.824Z,1003.42
2017-04-17T04:05:54.840Z,1003.4
2017-04-17T04:06:54.855Z,1003.4
2017-04-17T04:07:54.869Z,1003.39
2017-04-17T04:08:54.886Z,1003.39
2017-04-17T04:09:54.903Z,1003.39
2017-04-17T04:10:54.916Z,1003.38
2017-04-17T04:11:54.932Z,1003.37
2017-04-17T04:12:54.948Z,1003.38
2017-04-17T04:13:54.965Z,1003.36
2017-04-17T04:14:54.980Z,1003.36
2017-04-17T04:15:54.994Z,1003.36
2017-04-17T04:16:55.010Z,1003.38
2017-04-17T04:17:55.028Z,1003.43
2017-04-17T04:18:55.042Z,1003.38
2017-04-17T04:19:55.058Z,1003.37
2017-04-17T04:20:55.072Z,1003.39
2017-04-17T04:21:55.090Z,1003.39
2017-04-17T04:22:55.105Z,1003.35
2017-04-17T04:23:55.121Z,1003.38
2017-04-17T04:24:55.137Z,1003.32
2017-04-17T04:25:55.151Z,1003.37
2017-04-17T04:26:55.169Z,1003.35
2017-04-17T04:27:55.187Z,1003.34
2017-04-17T04:28:55.199Z,1003.34
2017-04-17T04:29:55.215Z,1003.36
2017-04-17T04:30:55.230Z,1003.33
2017-04-17T04:31:55.245Z,1003.34
2017-04-17T04:32:55.264Z,1003.43
2017-04-17T04:33:55.281Z,1003.35
2017-04-17T04:34:55.293Z,1003.36
2017-04-17T04:35:55.309Z,1003.38
2017-04-17T04:36:55.324Z,1003.39
2017-04-17T04:37:55.339Z,1003.37
2017-04-17T04:38:55.354Z,1003.39
2017-04-17T04:39:55.369Z,1003.37
2017-04-17T04:40:55.385Z,1003.37
2017-04-17T04:41:55.401Z,1003.39
2017-04-17T04:42:55.417Z,1003.39
2017-04-17T04:43:55.432Z,1003.37
2017-04-17T04:44:55.448Z,1003.34
2017-04-17T04:45:55.467Z,1003.35
2017-04-17T04:46:55.480Z,1003.34
2017-04-17T04:47:55.496Z,1003.37
2017-04-17T04:48:55.509Z,1003.37
2017-04-17T04:49:55.525Z,1003.37
2017-04-17T04:50:55.542Z,1003.39
2017-04-17T04:51:55.559Z,1003.38
2017-04-17T04:52:55.573Z,1003.39
2017-04-17T04:53:55.587Z,1003.4
2017-04-17T04:54:55.603Z,1003.4
2017-04-17T04:55:55.619Z,1003.43
2017-04-17T04:56:55.634Z,1003.4
2017-04-17T04:57:55.651Z,1003.43
2017-04-17T04:58:55.666Z,1003.46
2017-04-17T04:59:55.683Z,1003.46
2017-04-17T05:00:55.698Z,1003.47
2017-04-17T05:01:55.713Z,1003.5
2017-04-17T05:02:55.728Z,1003.47
2017-04-17T05:03:55.744Z,1003.49
2017-04-17T05:04:55.759Z,1003.51
2017-04-17T05:05:55.774Z,1003.46
2017-04-17T05:06:55.789Z,1003.47
2017-04-17T05:07:55.807Z,1003.47
2017-04-17T05:08:55.823Z,1003.47
2017-04-17T05:09:55.837Z,1003.5
2017-04-17T05:10:55.852Z,1003.47
2017-04-17T05:11:55.868Z,1003.52
2017-04-17T05:12:55.886Z,1003.51
2017-04-17T05:13:55.899Z,1003.52
2017-04-17T05:14:55.914Z,1003.51
2017-04-17T05:15:55.930Z,1003.57
2017-04-17T05:16:55.945Z,1003.55
2017-04-17T05:17:55.961Z,1003.54
2017-04-17T05:18:55.976Z,1003.54
2017-04-17T05:19:55.992Z,1003.52
2017-04-17T05:20:56.008Z,1003.53
2017-04-17T05:21:56.023Z,1003.56
2017-04-17T05:22:56.040Z,1003.54
2017-04-17T05:23:56.055Z,1003.55
2017-04-17T05:24:56.070Z,1003.52
2017-04-17T05:25:56.089Z,1003.55
2017-04-17T05:26:56.100Z,1003.53
2017-04-17T05:27:56.117Z,1003.55
2017-04-17T05:28:56.131Z,1003.57
2017-04-17T05:29:56.147Z,1003.54
2017-04-17T05:30:56.163Z,1003.54
2017-04-17T05:31:56.179Z,1003.56
2017-04-17T05:32:56.195Z,1003.53
2017-04-17T05:33:56.210Z,1003.53
2017-04-17T05:34:56.227Z,1003.55
2017-04-17T05:35:56.240Z,1003.55
2017-04-17T05:36:56.257Z,1003.48
2017-04-17T05:37:56.273Z,1003.52
2017-04-17T05:38:56.289Z,1003.51
2017-04-17T05:39:56.304Z,1003.52
2017-04-17T05:40:56.318Z,1003.51
2017-04-17T05:41:56.337Z,1003.51
2017-04-17T05:42:56.351Z,1003.51
2017-04-17T05:43:56.365Z,1003.49
2017-04-17T05:44:56.381Z,1003.51
2017-04-17T05:45:56.397Z,1003.56
2017-04-17T05:46:56.439Z,1003.53
2017-04-17T05:47:56.428Z,1003.52
2017-04-17T05:48:56.444Z,1003.54
2017-04-17T05:49:56.459Z,1003.53
2017-04-17T05:50:56.473Z,1003.52
2017-04-17T05:51:56.489Z,1003.54
2017-04-17T05:52:56.504Z,1003.53
2017-04-17T05:53:56.521Z,1003.56
2017-04-17T05:54:56.537Z,1003.52
2017-04-17T05:55:56.552Z,1003.53
2017-04-17T05:56:56.567Z,1003.52
2017-04-17T05:57:56.583Z,1003.52
2017-04-17T05:58:56.601Z,1003.51
2017-04-17T05:59:56.614Z,1003.53
2017-04-17T06:00:56.630Z,1003.57
2017-04-17T06:01:56.645Z,1003.51
2017-04-17T06:02:56.663Z,1003.55
2017-04-17T06:03:56.676Z,1003.52
2017-04-17T06:04:56.692Z,1003.55
2017-04-17T06:05:56.707Z,1003.56
2017-04-17T06:06:56.722Z,1003.5
2017-04-17T06:07:56.740Z,1003.5
2017-04-17T06:08:56.754Z,1003.5
2017-04-17T06:09:56.770Z,1003.49
2017-04-17T06:10:56.785Z,1003.49
2017-04-17T06:11:56.802Z,1003.48
2017-04-17T06:12:56.818Z,1003.47
2017-04-17T06:13:56.832Z,1003.47
2017-04-17T06:14:56.856Z,1003.48
2017-04-17T06:15:56.862Z,1003.47
2017-04-17T06:16:56.878Z,1003.48
2017-04-17T06:17:56.894Z,1003.45
2017-04-17T06:18:56.910Z,1003.46
2017-04-17T06:19:56.925Z,1003.45
2017-04-17T06:20:56.941Z,1003.41
2017-04-17T06:21:56.957Z,1003.44
2017-04-17T06:22:56.976Z,1003.45
2017-04-17T06:23:56.988Z,1003.42
2017-04-17T06:24:57.005Z,1003.45
2017-04-17T06:25:57.020Z,1003.41
2017-04-17T06:26:57.034Z,1003.43
2017-04-17T06:27:57.053Z,1003.41
2017-04-17T06:28:57.067Z,1003.4
2017-04-17T06:29:57.084Z,1003.41
2017-04-17T06:30:57.098Z,1003.43
2017-04-17T06:31:57.114Z,1003.4
2017-04-17T06:32:57.129Z,1003.36
2017-04-17T06:33:57.146Z,1003.4
2017-04-17T06:34:57.160Z,1003.39
2017-04-17T06:35:57.176Z,1003.36
2017-04-17T06:36:57.193Z,1003.37
2017-04-17T06:37:57.210Z,1003.38
2017-04-17T06:38:57.223Z,1003.38
2017-04-17T06:39:57.240Z,1003.36
2017-04-17T06:40:57.256Z,1003.38
2017-04-17T06:41:57.271Z,1003.34
2017-04-17T06:42:57.289Z,1003.34
2017-04-17T06:43:57.303Z,1003.32
2017-04-17T06:44:57.319Z,1003.35
2017-04-17T06:45:57.335Z,1003.31
2017-04-17T06:46:57.349Z,1003.33
2017-04-17T06:47:57.367Z,1003.36
2017-04-17T06:48:57.382Z,1003.34
2017-04-17T06:49:57.397Z,1003.31
2017-04-17T06:50:57.413Z,1003.31
2017-04-17T06:51:57.430Z,1003.32
2017-04-17T06:52:57.445Z,1003.3
2017-04-17T06:53:57.460Z,1003.29
2017-04-17T06:54:57.477Z,1003.25
2017-04-17T06:55:57.492Z,1003.29
2017-04-17T06:56:57.509Z,1003.25
2017-04-17T06:57:57.527Z,1003.26
2017-04-17T06:58:57.540Z,1003.19
2017-04-17T06:59:57.557Z,1003.21
2017-04-17T07:00:57.664Z,1003.18
2017-04-17T07:01:57.589Z,1003.2
2017-04-17T07:02:57.652Z,1003.19
2017-04-17T07:03:57.737Z,1003.2
2017-04-17T07:04:57.670Z,1003.19
2017-04-17T07:05:57.838Z,1003.17
2017-04-17T07:06:57.677Z,1003.16
2017-04-17T07:07:57.687Z,1003.15
2017-04-17T07:08:57.702Z,1003.15
2017-04-17T07:09:57.715Z,1003.16
2017-04-17T07:10:57.861Z,1003.14
2017-04-17T07:11:57.847Z,1003.13
2017-04-17T07:12:57.856Z,1003.16
2017-04-17T07:13:57.888Z,1003.14
2017-04-17T07:14:57.898Z,1003.13
2017-04-17T07:15:57.993Z,1003.12
2017-04-17T07:16:57.886Z,1003.11
2017-04-17T07:17:57.935Z,1003.11
2017-04-17T07:18:57.941Z,1003.12
2017-04-17T07:19:57.941Z,1003.13
2017-04-17T07:20:57.991Z,1003.12
2017-04-17T07:21:57.959Z,1003.07
2017-04-17T07:22:57.968Z,1003.11
2017-04-17T07:23:57.980Z,1003.07
2017-04-17T07:24:57.979Z,1003.07
2017-04-17T07:25:58.021Z,1003.06
2017-04-17T07:26:57.993Z,1003.06
2017-04-17T07:27:58.005Z,1003.08
2017-04-17T07:28:58.021Z,1003.02
2017-04-17T07:29:58.036Z,1003.05
2017-04-17T07:30:58.051Z,1003.03
2017-04-17T07:31:58.072Z,1003.03
2017-04-17T07:32:58.083Z,1003.04
2017-04-17T07:33:58.099Z,1003.02
2017-04-17T07:34:58.117Z,1003.02
2017-04-17T07:35:58.133Z,1003.06
2017-04-17T07:36:58.148Z,1003.06
2017-04-17T07:37:58.166Z,1003.06
2017-04-17T07:38:58.183Z,1003.09
2017-04-17T07:39:58.198Z,1003.07
2017-04-17T07:40:58.213Z,1003.09
2017-04-17T07:41:58.235Z,1003.09
2017-04-17T07:42:58.244Z,1003.12
2017-04-17T07:43:58.261Z,1003.1
2017-04-17T07:44:58.279Z,1003.1
2017-04-17T07:45:58.293Z,1003.06
2017-04-17T07:46:58.311Z,1003.1
2017-04-17T07:47:58.327Z,1003.08
2017-04-17T07:48:58.343Z,1003.13
2017-04-17T07:49:58.363Z,1003.12
2017-04-17T07:50:58.375Z,1003.14
2017-04-17T07:51:58.391Z,1003.15
2017-04-17T07:52:58.409Z,1003.16
2017-04-17T07:53:58.423Z,1003.16
2017-04-17T07:54:58.439Z,1003.15
2017-04-17T07:55:58.457Z,1003.16
2017-04-17T07:56:58.473Z,1003.15
2017-04-17T07:57:58.489Z,1003.07
2017-04-17T07:58:58.505Z,1003.09
2017-04-17T07:59:58.521Z,1003.07
2017-04-17T08:00:58.538Z,1003.05
2017-04-17T08:01:58.553Z,1003.09
2017-04-17T08:02:58.572Z,1003.08
2017-04-17T08:03:58.586Z,1003.08
2017-04-17T08:04:58.604Z,1003.04
2017-04-17T08:05:58.621Z,1003.08
2017-04-17T08:06:58.637Z,1003.08
2017-04-17T08:07:58.653Z,1003.06
2017-04-17T08:08:58.668Z,1003.07
2017-04-17T08:09:58.685Z,1003.02
2017-04-17T08:10:58.701Z,1003.05
2017-04-17T08:11:58.718Z,1003.03
2017-04-17T08:12:58.733Z,1003
2017-04-17T08:13:58.754Z,1002.97
2017-04-17T08:14:58.766Z,1002.96
2017-04-17T08:15:58.786Z,1002.94
2017-04-17T08:16:58.799Z,1002.92
2017-04-17T08:17:58.817Z,1002.91
2017-04-17T08:18:58.831Z,1002.93
2017-04-17T08:19:58.851Z,1002.93
2017-04-17T08:20:58.867Z,1002.91
2017-04-17T08:21:58.882Z,1002.89
2017-04-17T08:22:58.899Z,1002.89
2017-04-17T08:23:58.914Z,1002.9
2017-04-17T08:24:58.931Z,1002.91
2017-04-17T08:25:58.949Z,1002.9
2017-04-17T08:26:58.965Z,1002.82
2017-04-17T08:27:58.980Z,1002.85
2017-04-17T08:28:58.998Z,1002.88
2017-04-17T08:29:59.015Z,1002.85
2017-04-17T08:30:59.031Z,1002.85
2017-04-17T08:31:59.047Z,1002.83
2017-04-17T08:32:59.066Z,1002.82
2017-04-17T08:33:59.080Z,1002.84
2017-04-17T08:34:59.096Z,1002.79
2017-04-17T08:35:59.113Z,1002.83
2017-04-17T08:36:59.130Z,1002.82
2017-04-17T08:37:59.148Z,1002.81
2017-04-17T08:38:59.162Z,1002.87
2017-04-17T08:39:59.183Z,1002.87
2017-04-17T08:40:59.197Z,1002.87
2017-04-17T08:41:59.214Z,1002.86
2017-04-17T08:42:59.230Z,1002.84
2017-04-17T08:43:59.248Z,1002.89
2017-04-17T08:44:59.272Z,1002.86
2017-04-17T08:45:59.280Z,1002.87
2017-04-17T08:46:59.298Z,1002.87
2017-04-17T08:47:59.315Z,1002.81
2017-04-17T08:48:59.332Z,1002.84
2017-04-17T08:49:59.348Z,1002.87
2017-04-17T08:50:59.367Z,1002.85
2017-04-17T08:51:59.382Z,1002.83
2017-04-17T08:52:59.398Z,1002.85
2017-04-17T08:53:59.417Z,1002.87
2017-04-17T08:54:59.434Z,1002.84
2017-04-17T08:55:59.450Z,1002.82
2017-04-17T08:56:59.467Z,1002.82
2017-04-17T08:57:59.485Z,1002.79
2017-04-17T08:58:59.502Z,1002.77
2017-04-17T08:59:59.518Z,1002.77
2017-04-17T09:00:59.534Z,1002.75
2017-04-17T09:01:59.551Z,1002.76
2017-04-17T09:02:59.569Z,1002.74
2017-04-17T09:03:59.585Z,1002.74
2017-04-17T09:04:59.628Z,1002.77
2017-04-17T09:05:59.621Z,1002.73
2017-04-17T09:06:59.638Z,1002.73
2017-04-17T09:07:59.654Z,1002.76
2017-04-17T09:08:59.671Z,1002.78
2017-04-17T09:09:59.688Z,1002.73
2017-04-17T09:10:59.705Z,1002.72
2017-04-17T09:11:59.723Z,1002.74
2017-04-17T09:12:59.741Z,1002.7
2017-04-17T09:13:59.757Z,1002.69
2017-04-17T09:14:59.774Z,1002.73
2017-04-17T09:15:59.792Z,1002.7
2017-04-17T09:16:59.809Z,1002.74
2017-04-17T09:17:59.826Z,1002.7
2017-04-17T09:18:59.842Z,1002.69
2017-04-17T09:19:59.860Z,1002.66
2017-04-17T09:20:59.877Z,1002.66
2017-04-17T09:21:59.895Z,1002.64
2017-04-17T09:22:59.912Z,1002.61
2017-04-17T09:23:59.931Z,1002.59
2017-04-17T09:24:59.948Z,1002.57
2017-04-17T09:25:59.964Z,1002.54
2017-04-17T09:26:59.980Z,1002.52
2017-04-17T09:27:59.999Z,1002.53
2017-04-17T09:29:00.018Z,1002.5
2017-04-17T09:30:00.035Z,1002.49
2017-04-17T09:31:00.052Z,1002.48
2017-04-17T09:32:00.069Z,1002.46
2017-04-17T09:33:00.089Z,1002.45
2017-04-17T09:34:00.105Z,1002.45
2017-04-17T09:35:00.123Z,1002.43
2017-04-17T09:36:00.140Z,1002.45
2017-04-17T09:37:00.157Z,1002.44
2017-04-17T09:38:00.177Z,1002.45
2017-04-17T09:39:00.193Z,1002.43
2017-04-17T09:40:00.210Z,1002.41
2017-04-17T09:41:00.234Z,1002.42
2017-04-17T09:42:00.250Z,1002.38
2017-04-17T09:43:00.285Z,1002.41
2017-04-17T09:44:00.281Z,1002.42
2017-04-17T09:45:00.300Z,1002.37
2017-04-17T09:46:00.318Z,1002.38
2017-04-17T09:47:00.335Z,1002.41
2017-04-17T09:48:00.352Z,1002.37
2017-04-17T09:49:00.371Z,1002.36
2017-04-17T09:50:00.390Z,1002.41
2017-04-17T09:51:00.407Z,1002.38
2017-04-17T09:52:00.430Z,1002.4
2017-04-17T09:53:00.443Z,1002.34
2017-04-17T09:54:00.468Z,1002.37
2017-04-17T09:55:00.478Z,1002.38
2017-04-17T09:56:00.504Z,1002.36
2017-04-17T09:57:00.514Z,1002.37
2017-04-17T09:58:00.533Z,1002.35
2017-04-17T09:59:00.550Z,1002.33
2017-04-17T10:00:00.570Z,1002.32
2017-04-17T10:01:00.587Z,1002.28
2017-04-17T10:02:00.606Z,1002.32
2017-04-17T10:03:00.623Z,1002.27
2017-04-17T10:04:00.641Z,1002.29
2017-04-17T10:05:00.659Z,1002.26
2017-04-17T10:06:00.684Z,1002.23
2017-04-17T10:07:00.696Z,1002.22
2017-04-17T10:08:00.721Z,1002.24
2017-04-17T10:09:00.732Z,1002.22
2017-04-17T10:10:00.751Z,1002.19
2017-04-17T10:11:00.769Z,1002.2
2017-04-17T10:12:00.797Z,1002.15
2017-04-17T10:13:00.809Z,1002.17
2017-04-17T10:14:00.832Z,1002.16
2017-04-17T10:15:00.841Z,1002.19
2017-04-17T10:16:00.861Z,1002.18
2017-04-17T10:17:00.879Z,1002.19
2017-04-17T10:18:00.901Z,1002.13
2017-04-17T10:19:00.916Z,1002.15
2017-04-17T10:20:00.938Z,1002.11
2017-04-17T10:21:00.954Z,1002.09
2017-04-17T10:22:00.976Z,1002.08
2017-04-17T10:23:00.991Z,1002.12
2017-04-17T10:24:01.009Z,1002.11
2017-04-17T10:25:01.029Z,1002.14
2017-04-17T10:26:01.046Z,1002.12
2017-04-17T10:27:01.065Z,1002.08
2017-04-17T10:28:01.087Z,1002.09
2017-04-17T10:29:01.101Z,1002.08
2017-04-17T10:30:01.120Z,1002.08
2017-04-17T10:31:01.139Z,1002.05
2017-04-17T10:32:01.157Z,1002.07
2017-04-17T10:33:01.177Z,1002.04
2017-04-17T10:34:01.196Z,1002.06
2017-04-17T10:35:01.215Z,1002.05
2017-04-17T10:36:01.237Z,1002
2017-04-17T10:37:01.252Z,1002.02
2017-04-17T10:38:01.271Z,1001.99
2017-04-17T10:39:01.290Z,1001.98
2017-04-17T10:40:01.308Z,1001.99
2017-04-17T10:41:01.328Z,1001.99
2017-04-17T10:42:01.346Z,1001.96
2017-04-17T10:43:01.365Z,1001.94
2017-04-17T10:44:01.390Z,1001.92
2017-04-17T10:45:01.470Z,1001.93
2017-04-17T10:46:01.425Z,1001.94
2017-04-17T10:47:01.444Z,1001.91
2017-04-17T10:48:01.461Z,1001.94
2017-04-17T10:49:01.480Z,1001.92
2017-04-17T10:50:01.499Z,1001.88
2017-04-17T10:51:01.520Z,1001.92
2017-04-17T10:52:01.538Z,1001.9
2017-04-17T10:53:01.558Z,1001.9
2017-04-17T10:54:01.576Z,1001.91
2017-04-17T10:55:01.598Z,1001.9
2017-04-17T10:56:01.618Z,1001.91
2017-04-17T10:57:01.639Z,1001.94
2017-04-17T10:58:01.655Z,1001.94
2017-04-17T10:59:01.675Z,1001.95
2017-04-17T11:00:01.695Z,1002.03
2017-04-17T11:01:01.713Z,1002.06
2017-04-17T11:02:01.732Z,1001.99
2017-04-17T11:03:01.750Z,1002.07
2017-04-17T11:04:01.771Z,1002.05
2017-04-17T11:05:01.792Z,1002.04
2017-04-17T11:06:01.811Z,1002.11
2017-04-17T11:07:01.829Z,1002.19
2017-04-17T11:08:01.851Z,1002.15
2017-04-17T11:09:01.872Z,1002.21
2017-04-17T11:10:01.888Z,1002.26
2017-04-17T11:11:01.908Z,1002.29
2017-04-17T11:12:01.927Z,1002.34
2017-04-17T11:13:01.947Z,1002.35
2017-04-17T11:14:01.966Z,1002.4
2017-04-17T11:15:01.985Z,1002.46
2017-04-17T11:16:02.004Z,1002.46
2017-04-17T11:17:02.026Z,1002.49
2017-04-17T11:18:02.043Z,1002.49
2017-04-17T11:19:02.065Z,1002.49
2017-04-17T11:20:02.082Z,1002.5
2017-04-17T11:21:02.101Z,1002.53
2017-04-17T11:22:02.120Z,1002.51
2017-04-17T11:23:02.140Z,1002.51
2017-04-17T11:24:02.158Z,1002.52
2017-04-17T11:25:02.181Z,1002.51
2017-04-17T11:26:02.199Z,1002.5
2017-04-17T11:27:02.217Z,1002.47
2017-04-17T11:28:02.236Z,1002.48
2017-04-17T11:29:02.257Z,1002.49
2017-04-17T11:30:02.276Z,1002.53
2017-04-17T11:31:02.293Z,1002.51
2017-04-17T11:32:02.314Z,1002.5
2017-04-17T11:33:02.332Z,1002.5
2017-04-17T11:34:02.355Z,1002.49
2017-04-17T11:35:02.369Z,1002.47
2017-04-17T11:36:02.392Z,1002.48
2017-04-17T11:37:02.408Z,1002.47
2017-04-17T11:38:02.428Z,1002.43
2017-04-17T11:39:02.446Z,1002.46
2017-04-17T11:40:02.467Z,1002.49
2017-04-17T11:41:02.488Z,1002.42
2017-04-17T11:42:02.504Z,1002.42
2017-04-17T11:43:02.525Z,1002.42
2017-04-17T11:44:02.541Z,1002.38
2017-04-17T11:45:02.560Z,1002.39
2017-04-17T11:46:02.580Z,1002.36
2017-04-17T11:47:02.596Z,1002.35
2017-04-17T11:48:02.617Z,1002.32
2017-04-17T11:49:02.635Z,1002.32
2017-04-17T11:50:02.653Z,1002.33
2017-04-17T11:51:02.672Z,1002.32
2017-04-17T11:52:02.695Z,1002.31
2017-04-17T11:53:02.712Z,1002.3
2017-04-17T11:54:02.729Z,1002.29
2017-04-17T11:55:02.748Z,1002.34
2017-04-17T11:56:02.765Z,1002.29
2017-04-17T11:57:02.785Z,1002.28
2017-04-17T11:58:02.804Z,1002.33
2017-04-17T11:59:02.821Z,1002.31
2017-04-17T12:00:02.839Z,1002.31
2017-04-17T12:01:02.858Z,1002.29
2017-04-17T12:02:02.878Z,1002.31
2017-04-17T12:03:02.895Z,1002.34
2017-04-17T12:04:02.915Z,1002.34
2017-04-17T12:05:02.933Z,1002.31
2017-04-17T12:06:02.951Z,1002.31
2017-04-17T12:07:02.970Z,1002.3
2017-04-17T12:08:02.988Z,1002.27